Time;durP1;ratioP1;P1;durP2;ratioP2;P2;SDS_P1;SDS_P2;PMS_P1;PMS_P2;Temp;Humidity;BMP_temperature;BMP_pressure;BME280_temperature;BME280_humidity;BME280_pressure;Samples;Min_cycle;Max_cycle;Signal;HPM_P1;HPM_P2
2022/06/03 00:01:51;;;;;;;8.73;5.15;;;10.40;99.90;;;;;;5086148;28;20053;-75
2022/06/03 00:04:20;;;;;;;9.10;5.40;;;10.40;99.90;;;;;;5074398;28;20049;-75
2022/06/03 00:07:04;;;;;;;10.13;5.57;;;10.30;99.90;;;;;;5077420;28;20127;-75
2022/06/03 00:10:14;;;;;;;10.15;5.43;;;10.20;99.90;;;;;;5046956;28;20041;-75
2022/06/03 00:12:51;;;;;;;9.43;5.32;;;10.30;99.90;;;;;;5034622;28;20045;-76
2022/06/03 00:15:48;;;;;;;8.00;4.95;;;10.20;99.90;;;;;;5084479;28;20139;-75
2022/06/03 00:18:14;;;;;;;8.63;4.78;;;10.20;99.90;;;;;;5046827;28;20052;-76
2022/06/03 00:21:04;;;;;;;11.00;5.53;;;10.10;99.90;;;;;;5034940;28;20417;-75
2022/06/03 00:23:45;;;;;;;8.98;5.53;;;10.00;99.90;;;;;;5053976;28;20111;-75
2022/06/03 00:26:32;;;;;;;8.47;5.13;;;10.00;99.90;;;;;;5064799;28;20409;-75
2022/06/03 00:29:07;;;;;;;7.75;4.78;;;10.00;99.90;;;;;;5047743;28;20080;-75
2022/06/03 00:31:39;;;;;;;11.43;5.45;;;9.90;99.90;;;;;;5051862;28;20115;-75
2022/06/03 00:34:06;;;;;;;9.13;5.60;;;9.90;99.90;;;;;;5031008;28;20056;-75
2022/06/03 00:36:57;;;;;;;7.57;4.97;;;9.90;99.90;;;;;;5085624;28;20064;-74
2022/06/03 00:39:47;;;;;;;5.78;4.13;;;9.90;99.90;;;;;;5067323;28;20530;-74
2022/06/03 00:42:43;;;;;;;4.50;3.72;;;9.80;99.90;;;;;;5042128;28;20520;-74
2022/06/03 00:45:32;;;;;;;8.48;4.90;;;9.70;99.90;;;;;;5038600;28;20084;-74
2022/06/03 00:48:07;;;;;;;8.93;5.07;;;9.70;99.90;;;;;;5060857;28;20513;-74
2022/06/03 00:50:51;;;;;;;9.63;5.57;;;9.70;99.90;;;;;;5058719;28;20553;-75
2022/06/03 00:53:43;;;;;;;7.47;4.82;;;9.70;99.90;;;;;;5049337;28;20057;-74
2022/06/03 00:56:36;;;;;;;9.75;4.70;;;9.80;99.90;;;;;;5045912;28;20052;-74
2022/06/03 00:59:20;;;;;;;9.75;6.35;;;9.60;99.90;;;;;;5030681;28;20145;-74
2022/06/03 01:02:05;;;;;;;7.07;4.70;;;9.70;99.90;;;;;;5044593;28;20041;-74
2022/06/03 01:04:43;;;;;;;8.35;4.75;;;9.70;99.90;;;;;;5028815;28;20382;-75
2022/06/03 01:07:15;;;;;;;8.88;4.80;;;9.40;99.90;;;;;;5034558;28;20448;-74
2022/06/03 01:10:09;;;;;;;8.52;5.50;;;9.30;99.90;;;;;;5084248;28;20048;-74
2022/06/03 01:12:55;;;;;;;10.70;5.40;;;9.30;99.90;;;;;;5035356;28;20064;-74
2022/06/03 01:15:58;;;;;;;12.38;5.95;;;9.30;99.90;;;;;;5074624;28;20066;-74
2022/06/03 01:18:34;;;;;;;9.63;6.10;;;9.40;99.90;;;;;;5046952;28;20400;-74
2022/06/03 01:21:18;;;;;;;9.27;5.10;;;9.40;99.90;;;;;;5051266;28;20098;-74
2022/06/03 01:24:24;;;;;;;8.00;4.78;;;9.20;99.90;;;;;;5032250;28;20095;-75
2022/06/03 01:27:31;;;;;;;8.68;5.45;;;9.20;99.90;;;;;;5033845;28;20631;-74
2022/06/03 01:30:08;;;;;;;8.52;5.47;;;9.20;99.90;;;;;;5052978;28;20094;-74
2022/06/03 01:33:00;;;;;;;8.27;5.40;;;9.20;99.90;;;;;;5050834;28;20049;-74
2022/06/03 01:35:58;;;;;;;10.73;6.53;;;9.20;99.90;;;;;;5083193;28;20091;-74
2022/06/03 01:38:33;;;;;;;9.57;6.15;;;9.20;99.90;;;;;;5024064;28;20049;-74
2022/06/03 01:41:26;;;;;;;6.95;4.22;;;9.30;99.90;;;;;;5044908;28;20084;-75
2022/06/03 01:44:10;;;;;;;8.50;5.00;;;9.20;99.90;;;;;;5066619;28;20103;-74
2022/06/03 01:46:46;;;;;;;8.02;6.03;;;9.00;99.90;;;;;;5039674;28;20056;-74
2022/06/03 01:49:37;;;;;;;10.13;5.93;;;9.00;99.90;;;;;;5047617;28;20106;-74
2022/06/03 01:52:41;;;;;;;11.50;6.70;;;9.00;99.90;;;;;;5025385;28;20136;-74
2022/06/03 01:55:22;;;;;;;11.48;7.18;;;9.00;99.90;;;;;;5028889;28;20049;-74
2022/06/03 01:58:11;;;;;;;11.30;6.78;;;9.10;99.90;;;;;;5078924;28;20082;-74
2022/06/03 02:00:55;;;;;;;10.88;6.90;;;9.10;99.90;;;;;;5035668;28;20053;-74
2022/06/03 02:03:40;;;;;;;9.68;5.82;;;9.10;99.90;;;;;;5052548;28;20062;-74
2022/06/03 02:06:42;;;;;;;7.93;5.38;;;9.10;99.90;;;;;;5059307;28;20383;-74
2022/06/03 02:09:49;;;;;;;8.93;6.25;;;9.00;99.90;;;;;;5051716;28;20489;-74
2022/06/03 02:12:26;;;;;;;10.00;6.35;;;9.00;99.90;;;;;;5054933;28;20137;-74
2022/06/03 02:15:23;;;;;;;9.80;6.47;;;9.00;99.90;;;;;;5048034;28;20049;-74
2022/06/03 02:18:05;;;;;;;8.77;6.10;;;9.00;99.90;;;;;;5064793;28;20421;-74
2022/06/03 02:20:40;;;;;;;;;;;9.00;99.90;;;;;;5051068;28;20052;-74
2022/06/03 02:23:28;;;;;;;6.32;4.20;;;8.80;99.90;;;;;;5063482;28;20004;-74
2022/06/03 02:26:37;;;;;;;7.38;5.05;;;8.70;99.90;;;;;;5080594;28;20428;-74
2022/06/03 02:32:28;;;;;;;12.75;7.32;;;8.60;99.90;;;;;;5075053;28;20050;-74
2022/06/03 02:35:16;;;;;;;11.95;7.38;;;8.60;99.90;;;;;;5075828;28;20052;-74
2022/06/03 02:38:14;;;;;;;9.25;5.25;;;8.60;99.90;;;;;;5050031;28;20045;-74
2022/06/03 02:41:12;;;;;;;8.75;5.25;;;8.50;99.90;;;;;;5047445;28;20080;-74
2022/06/03 02:43:55;;;;;;;11.25;7.00;;;8.50;99.90;;;;;;5048420;28;20127;-74
2022/06/03 02:47:00;;;;;;;12.25;7.07;;;8.50;99.90;;;;;;5061923;28;20049;-74
2022/06/03 02:49:37;;;;;;;8.85;6.10;;;8.50;99.90;;;;;;5057273;28;20254;-74
2022/06/03 02:52:37;;;;;;;10.23;6.47;;;8.40;99.90;;;;;;5050349;28;20054;-74
2022/06/03 02:55:18;;;;;;;8.88;5.28;;;8.40;99.90;;;;;;5058565;28;20287;-74
2022/06/03 02:58:06;;;;;;;6.45;3.90;;;8.40;99.90;;;;;;5078600;28;20484;-74
2022/06/03 03:00:40;;;;;;;9.40;6.22;;;8.40;99.90;;;;;;5061445;28;20037;-74
2022/06/03 03:03:17;;;;;;;12.40;6.43;;;8.30;99.90;;;;;;5054978;28;20074;-73
2022/06/03 03:06:16;;;;;;;11.93;6.18;;;8.40;99.90;;;;;;5048359;28;20123;-73
2022/06/03 03:09:00;;;;;;;7.63;4.88;;;8.40;99.90;;;;;;5059586;28;20044;-73
2022/06/03 03:12:01;;;;;;;6.07;4.53;;;8.40;99.90;;;;;;5060667;28;20549;-73
2022/06/03 03:15:05;;;;;;;10.25;5.30;;;8.50;99.90;;;;;;5061646;28;20048;-73
2022/06/03 03:18:09;;;;;;;10.35;6.07;;;8.50;99.90;;;;;;5045462;28;20051;-73
2022/06/03 03:21:09;;;;;;;4.78;2.75;;;8.50;99.90;;;;;;5062839;28;20385;-73
2022/06/03 03:23:53;;;;;;;5.47;3.00;;;8.30;99.90;;;;;;5058804;28;20505;-73
2022/06/03 03:26:57;;;;;;;5.57;3.58;;;8.20;99.90;;;;;;5077291;28;20056;-73
2022/06/03 03:30:08;;;;;;;9.93;6.57;;;8.20;99.90;;;;;;5020414;28;20130;-74
2022/06/03 03:32:52;;;;;;;12.40;7.38;;;8.40;99.90;;;;;;5005773;28;20049;-74
2022/06/03 03:35:48;;;;;;;9.18;5.65;;;8.40;99.90;;;;;;5061981;28;20135;-73
2022/06/03 03:38:48;;;;;;;11.00;7.05;;;8.40;99.90;;;;;;5081423;28;20045;-73
2022/06/03 03:42:03;;;;;;;15.40;7.13;;;8.50;99.90;;;;;;5066216;28;20469;-73
2022/06/03 03:44:35;;;;;;;8.95;5.80;;;8.50;99.90;;;;;;5022925;28;20465;-73
2022/06/03 03:47:38;;;;;;;8.15;5.60;;;8.60;99.90;;;;;;5043077;28;20063;-73
2022/06/03 03:50:29;;;;;;;14.93;8.93;;;8.70;99.90;;;;;;5061513;28;20409;-73
2022/06/03 03:53:21;;;;;;;13.93;8.50;;;8.80;99.90;;;;;;5078536;28;20076;-73
2022/06/03 03:56:24;;;;;;;15.00;8.70;;;8.90;99.90;;;;;;5055736;28;20437;-73
2022/06/03 03:59:11;;;;;;;15.95;8.63;;;9.00;99.90;;;;;;5058057;28;20040;-74
2022/06/03 04:01:52;;;;;;;14.98;8.55;;;9.20;99.90;;;;;;5065143;28;20040;-73
2022/06/03 04:04:27;;;;;;;16.98;10.18;;;9.20;99.90;;;;;;5079196;28;20453;-74
2022/06/03 04:06:55;;;;;;;15.25;8.70;;;9.30;99.90;;;;;;5042200;28;20040;-73
2022/06/03 04:09:33;;;;;;;16.77;9.93;;;9.30;99.90;;;;;;5057401;28;20068;-73
2022/06/03 04:12:23;;;;;;;14.55;9.02;;;9.50;99.90;;;;;;5052880;28;20045;-73
2022/06/03 04:15:00;;;;;;;15.48;9.65;;;9.60;99.90;;;;;;5052378;28;20489;-73
2022/06/03 04:17:49;;;;;;;16.27;8.93;;;9.70;99.90;;;;;;5038608;28;20106;-73
2022/06/03 04:20:52;;;;;;;16.75;9.48;;;9.80;99.90;;;;;;5082645;28;20045;-73
2022/06/03 04:23:20;;;;;;;13.32;8.68;;;9.90;99.90;;;;;;5035259;28;20045;-73
2022/06/03 04:26:13;;;;;;;16.67;9.27;;;10.00;99.90;;;;;;5085155;28;20573;-74
2022/06/03 04:29:34;;;;;;;15.70;9.05;;;10.10;99.90;;;;;;5055768;28;20151;-74
2022/06/03 04:32:39;;;;;;;18.02;9.73;;;10.20;99.90;;;;;;5060943;28;20048;-73
2022/06/03 04:35:14;;;;;;;13.18;8.35;;;10.40;99.90;;;;;;5059029;28;20048;-73
2022/06/03 04:38:11;;;;;;;16.05;8.10;;;10.40;99.90;;;;;;5077103;28;20052;-73
2022/06/03 04:41:15;;;;;;;14.02;8.40;;;10.60;99.90;;;;;;5061795;28;20131;-73
2022/06/03 04:44:05;;;;;;;12.45;8.13;;;10.60;99.90;;;;;;4995487;28;20040;-73
2022/06/03 04:46:41;;;;;;;14.93;7.97;;;10.70;99.90;;;;;;5080792;28;20048;-73
2022/06/03 04:49:34;;;;;;;12.90;7.88;;;10.70;99.90;;;;;;5058550;28;20056;-72
2022/06/03 04:52:31;;;;;;;15.60;7.70;;;10.80;99.90;;;;;;5065167;28;20043;-72
2022/06/03 04:55:21;;;;;;;12.70;7.90;;;10.80;99.90;;;;;;5064785;28;20421;-73
2022/06/03 04:58:11;;;;;;;12.52;7.30;;;10.90;99.90;;;;;;5070567;28;20048;-73
2022/06/03 05:01:15;;;;;;;14.23;8.07;;;11.00;99.90;;;;;;5051289;28;20106;-73
2022/06/03 05:04:08;;;;;;;11.20;7.65;;;11.10;99.90;;;;;;5051908;28;20040;-73
2022/06/03 05:07:01;;;;;;;11.70;7.03;;;11.20;99.90;;;;;;5055986;28;20404;-73
2022/06/03 05:10:03;;;;;;;10.93;6.93;;;11.30;99.90;;;;;;5078847;28;20041;-73
2022/06/03 05:12:58;;;;;;;14.80;6.47;;;11.40;99.90;;;;;;5058117;28;20079;-73
2022/06/03 05:15:52;;;;;;;11.00;6.88;;;11.50;99.90;;;;;;5056887;28;20053;-73
2022/06/03 05:18:28;;;;;;;12.15;7.03;;;11.60;99.90;;;;;;5041677;28;20397;-73
2022/06/03 05:21:03;;;;;;;11.40;6.40;;;11.70;99.90;;;;;;5040313;28;20103;-73
2022/06/03 05:23:57;;;;;;;9.52;6.00;;;11.70;99.90;;;;;;5043879;28;20051;-73
2022/06/03 05:26:50;;;;;;;10.05;6.00;;;11.90;99.90;;;;;;5079650;28;20041;-74
2022/06/03 05:29:30;;;;;;;9.10;5.75;;;12.00;99.90;;;;;;5080846;28;20091;-74
2022/06/03 05:32:18;;;;;;;12.38;6.32;;;12.10;99.90;;;;;;5079558;28;20878;-73
2022/06/03 05:35:00;;;;;;;13.38;6.35;;;12.10;99.90;;;;;;5052831;28;20509;-73
2022/06/03 05:37:41;;;;;;;11.25;6.32;;;12.30;99.90;;;;;;5055212;28;20040;-73
2022/06/03 05:40:22;;;;;;;10.93;5.90;;;12.40;99.90;;;;;;5079206;28;20049;-74
2022/06/03 05:43:12;;;;;;;11.80;6.10;;;12.50;99.90;;;;;;5054410;28;20493;-73
2022/06/03 05:45:44;;;;;;;9.73;7.00;;;12.60;99.90;;;;;;5046817;28;20594;-73
2022/06/03 05:48:21;;;;;;;10.50;6.20;;;12.70;99.90;;;;;;5062712;28;20052;-73
2022/06/03 05:51:00;;;;;;;11.05;5.93;;;12.90;99.90;;;;;;5060533;28;20047;-74
2022/06/03 05:53:39;;;;;;;9.43;6.18;;;13.00;99.90;;;;;;5072481;28;20544;-73
2022/06/03 05:56:18;;;;;;;10.10;6.25;;;13.00;99.90;;;;;;5063940;28;20061;-73
2022/06/03 05:59:15;;;;;;;8.77;5.70;;;13.10;99.90;;;;;;5060916;28;20040;-74
2022/06/03 06:02:06;;;;;;;8.10;5.40;;;13.30;99.90;;;;;;5062150;28;20044;-75
2022/06/03 06:05:14;;;;;;;8.10;5.75;;;13.40;99.90;;;;;;5076152;28;20047;-75
2022/06/03 06:08:04;;;;;;;8.93;5.28;;;13.50;99.90;;;;;;5067310;28;20051;-74
2022/06/03 06:10:50;;;;;;;7.82;4.60;;;13.70;99.90;;;;;;5037637;28;20051;-75
2022/06/03 06:13:28;;;;;;;8.30;4.97;;;13.80;99.90;;;;;;5058672;28;20063;-74
2022/06/03 06:16:17;;;;;;;9.10;5.40;;;13.90;99.90;;;;;;5058719;28;20059;-76
2022/06/03 06:18:58;;;;;;;8.85;5.50;;;14.00;99.90;;;;;;5037673;28;20131;-74
2022/06/03 06:21:43;;;;;;;;;;;14.10;99.90;;;;;;5072927;28;20110;-74
2022/06/03 06:24:27;;;;;;;7.35;4.38;;;14.20;99.90;;;;;;5056503;28;19920;-77
2022/06/03 06:27:27;;;;;;;7.38;4.68;;;14.20;99.90;;;;;;5081425;28;20238;-74
2022/06/03 06:30:17;;;;;;;6.22;4.50;;;14.20;99.90;;;;;;5077293;28;20378;-76
2022/06/03 06:33:05;;;;;;;8.50;4.50;;;14.40;99.90;;;;;;5075538;28;20040;-75
2022/06/03 06:35:49;;;;;;;6.68;4.00;;;14.50;99.90;;;;;;5053374;28;20519;-74
2022/06/03 06:38:30;;;;;;;4.85;3.67;;;14.60;99.90;;;;;;5049978;28;20045;-74
2022/06/03 06:41:29;;;;;;;5.57;3.50;;;14.60;99.90;;;;;;5058479;28;20056;-74
2022/06/03 06:44:10;;;;;;;6.30;3.65;;;14.80;99.90;;;;;;5031609;28;20584;-75
2022/06/03 06:47:03;;;;;;;6.38;3.70;;;14.80;99.90;;;;;;5050506;28;20140;-74
2022/06/03 06:49:35;;;;;;;6.65;4.03;;;14.90;99.90;;;;;;5048634;28;20065;-74
2022/06/03 06:52:19;;;;;;;4.57;3.30;;;15.00;99.90;;;;;;5034443;28;20486;-75
2022/06/03 06:54:57;;;;;;;5.68;3.35;;;15.10;99.90;;;;;;5075440;28;20076;-75
2022/06/03 06:57:27;;;;;;;5.35;3.20;;;15.30;99.90;;;;;;5087626;28;20055;-74
2022/06/03 06:59:58;;;;;;;4.00;3.30;;;15.40;99.90;;;;;;5053182;28;20517;-74
2022/06/03 07:02:38;;;;;;;6.13;3.20;;;15.50;99.90;;;;;;5036269;28;20045;-74
2022/06/03 07:05:19;;;;;;;7.05;3.67;;;15.70;99.90;;;;;;5053283;28;20053;-74
2022/06/03 07:07:51;;;;;;;6.13;3.78;;;15.80;99.90;;;;;;5087650;28;20072;-75
2022/06/03 07:10:25;;;;;;;;;;;15.90;99.90;;;;;;5087080;28;20045;-74
2022/06/03 07:13:00;;;;;;;4.32;3.20;;;16.00;99.90;;;;;;5076415;28;19921;-74
2022/06/03 07:15:35;;;;;;;4.85;3.30;;;16.10;99.90;;;;;;5060052;28;20055;-74
2022/06/03 07:20:58;;;;;;;5.82;3.65;;;16.20;99.90;;;;;;5078869;28;20049;-73
2022/06/03 07:23:31;;;;;;;6.38;3.60;;;16.30;99.90;;;;;;5083296;28;20049;-74
2022/06/03 07:26:16;;;;;;;7.25;2.90;;;16.40;99.90;;;;;;5042087;28;20059;-75
2022/06/03 07:28:55;;;;;;;3.83;3.03;;;16.50;99.90;;;;;;5061280;28;20057;-74
2022/06/03 07:31:40;;;;;;;5.47;3.40;;;16.60;99.90;;;;;;5061971;28;21516;-74
2022/06/03 07:34:18;;;;;;;5.97;3.20;;;16.70;99.90;;;;;;5058464;28;20519;-74
2022/06/03 07:37:15;;;;;;;8.40;2.80;;;16.70;99.90;;;;;;5064450;28;20044;-74
2022/06/03 07:39:50;;;;;;;5.45;2.88;;;16.90;99.90;;;;;;5055693;28;20649;-74
2022/06/03 07:42:44;;;;;;;5.80;2.90;;;16.80;99.90;;;;;;5041266;28;20067;-74
2022/06/03 07:45:26;;;;;;;4.95;2.40;;;16.90;99.90;;;;;;5060018;28;20053;-74
2022/06/03 07:47:54;;;;;;;3.13;2.50;;;17.10;99.90;;;;;;5051050;28;20092;-74
2022/06/03 07:50:21;;;;;;;5.72;2.50;;;17.20;99.90;;;;;;5045559;28;20041;-75
2022/06/03 07:53:01;;;;;;;5.47;2.42;;;17.30;99.90;;;;;;5048534;28;20038;-74
2022/06/03 07:55:30;;;;;;;3.95;2.47;;;17.50;99.90;;;;;;5054658;28;20135;-74
2022/06/03 07:58:04;;;;;;;3.80;2.70;;;17.60;99.90;;;;;;5033044;28;20045;-74
2022/06/03 08:00:35;;;;;;;3.85;3.10;;;17.70;99.90;;;;;;5033304;28;20050;-74
2022/06/03 08:03:05;;;;;;;3.43;2.67;;;17.80;99.90;;;;;;5048438;28;20077;-74
2022/06/03 08:05:32;;;;;;;7.28;2.42;;;17.90;99.90;;;;;;5032140;28;20699;-74
2022/06/03 08:10:57;;;;;;;2.97;2.67;;;18.10;99.90;;;;;;5075118;28;20059;-74
2022/06/03 08:13:48;;;;;;;2.90;2.47;;;18.20;99.90;;;;;;5057452;28;20034;-74
2022/06/03 08:16:20;;;;;;;4.30;2.23;;;18.20;99.90;;;;;;5034219;28;20454;-74
2022/06/03 08:18:47;;;;;;;2.20;2.00;;;18.20;99.90;;;;;;5052486;28;20045;-75
2022/06/03 08:21:19;;;;;;;3.08;2.22;;;18.40;99.90;;;;;;5031774;28;20060;-75
2022/06/03 08:23:45;;;;;;;2.50;2.22;;;18.50;99.90;;;;;;5051156;28;20119;-75
2022/06/03 08:26:15;;;;;;;3.85;1.90;;;18.60;99.90;;;;;;5049206;28;20136;-75
2022/06/03 08:28:48;;;;;;;2.42;2.05;;;18.70;99.90;;;;;;5055340;28;20048;-74
2022/06/03 08:31:17;;;;;;;6.45;2.10;;;18.80;99.90;;;;;;5078375;28;20033;-75
2022/06/03 08:33:58;;;;;;;4.63;1.92;;;19.00;99.90;;;;;;5054022;28;20053;-73
2022/06/03 08:36:31;;;;;;;2.08;1.63;;;18.90;95.40;;;;;;5047533;28;20040;-74
2022/06/03 08:39:12;;;;;;;2.72;1.80;;;18.90;99.90;;;;;;5043335;28;20037;-74
2022/06/03 08:41:38;;;;;;;3.72;1.63;;;19.00;99.90;;;;;;5059264;28;20041;-74
2022/06/03 08:44:21;;;;;;;2.10;1.90;;;19.10;99.90;;;;;;5040210;28;20089;-75
2022/06/03 08:46:53;;;;;;;2.90;1.50;;;19.10;98.00;;;;;;5059581;28;20052;-74
2022/06/03 08:49:23;;;;;;;3.00;1.73;;;19.20;95.70;;;;;;5043706;28;20131;-74
2022/06/03 08:51:53;;;;;;;2.50;1.90;;;19.20;98.40;;;;;;5042270;28;20175;-74
2022/06/03 08:54:26;;;;;;;1.88;1.75;;;19.40;99.60;;;;;;5059544;28;20557;-74
2022/06/03 08:56:57;;;;;;;2.65;2.05;;;19.50;94.60;;;;;;5059351;28;20099;-75
2022/06/03 08:59:34;;;;;;;4.68;1.73;;;19.60;92.40;;;;;;5044648;28;20048;-75
2022/06/03 09:02:06;;;;;;;4.30;1.98;;;19.70;90.10;;;;;;5056012;28;20124;-74
2022/06/03 09:04:51;;;;;;;3.60;1.83;;;19.70;93.40;;;;;;5040484;28;20045;-75
2022/06/03 09:07:26;;;;;;;3.65;2.17;;;19.90;94.00;;;;;;5079599;28;20076;-74
2022/06/03 09:10:07;;;;;;;5.13;2.20;;;20.10;92.30;;;;;;5042000;28;20101;-73
2022/06/03 09:12:33;;;;;;;3.17;2.03;;;20.20;88.90;;;;;;5060385;28;20071;-74
2022/06/03 09:15:12;;;;;;;1.80;1.70;;;20.10;92.90;;;;;;5044717;28;20482;-74
2022/06/03 09:18:17;;;;;;;5.20;2.00;;;20.30;93.50;;;;;;5061259;28;20520;-74
2022/06/03 09:20:56;;;;;;;2.67;1.85;;;20.50;90.90;;;;;;4969525;28;20050;-75
2022/06/03 09:23:25;;;;;;;4.32;1.85;;;20.50;83.00;;;;;;5050171;28;20476;-74
2022/06/03 09:25:56;;;;;;;2.33;1.80;;;20.50;90.00;;;;;;5074179;28;20037;-75
2022/06/03 09:28:29;;;;;;;4.38;2.30;;;20.60;85.30;;;;;;5080627;28;20544;-73
2022/06/03 09:30:58;;;;;;;3.38;2.20;;;20.70;84.60;;;;;;5062065;28;20061;-74
2022/06/03 09:33:26;;;;;;;2.28;1.83;;;20.90;90.30;;;;;;5055278;28;20119;-74
2022/06/03 09:35:55;;;;;;;2.22;2.03;;;21.00;86.80;;;;;;5040504;28;20090;-74
2022/06/03 09:38:25;;;;;;;3.05;2.00;;;21.20;87.80;;;;;;5077750;28;20080;-73
2022/06/03 09:40:55;;;;;;;2.97;1.88;;;21.50;86.90;;;;;;5062062;28;20051;-75
2022/06/03 09:43:36;;;;;;;3.03;1.85;;;21.40;83.80;;;;;;5059636;28;20252;-74
2022/06/03 09:46:05;;;;;;;2.83;2.08;;;21.60;82.80;;;;;;5053216;28;20410;-77
2022/06/03 09:48:36;;;;;;;2.42;2.15;;;21.60;82.00;;;;;;5045973;28;20053;-75
2022/06/03 09:51:55;;;;;;;3.65;2.10;;;21.60;79.60;;;;;;5044478;28;20057;-74
2022/06/03 09:54:11;;;;;;;3.15;1.92;;;21.60;79.60;;;;;;5060203;28;20046;-74
2022/06/03 09:56:38;;;;;;;3.67;2.25;;;21.80;81.60;;;;;;5062451;28;20074;-74
2022/06/03 09:59:04;;;;;;;3.75;2.30;;;21.90;80.50;;;;;;5034752;28;20132;-76
2022/06/03 10:01:30;;;;;;;3.30;2.42;;;22.00;78.30;;;;;;5050920;28;20092;-75
2022/06/03 10:04:06;;;;;;;2.92;2.13;;;21.90;77.40;;;;;;5042567;28;20040;-74
2022/06/03 10:06:50;;;;;;;3.50;2.42;;;22.00;73.50;;;;;;5061602;28;20105;-75
2022/06/03 10:17:49;;;;;;;8.32;2.40;;;22.40;70.10;;;;;;5078258;28;20048;-75
2022/06/03 10:20:16;;;;;;;2.35;2.15;;;22.50;72.20;;;;;;5056762;28;20134;-74
2022/06/03 10:22:45;;;;;;;5.53;2.40;;;22.50;71.40;;;;;;5056474;28;20409;-74
2022/06/03 10:25:12;;;;;;;3.70;2.55;;;22.60;69.70;;;;;;5054282;28;20492;-75
2022/06/03 10:27:38;;;;;;;9.07;2.92;;;22.60;70.50;;;;;;5040284;28;20551;-74
2022/06/03 10:30:05;;;;;;;5.00;2.30;;;22.40;69.70;;;;;;5075865;28;20041;-75
2022/06/03 10:32:33;;;;;;;6.57;2.45;;;22.30;70.20;;;;;;5060111;28;20162;-74
2022/06/03 10:35:13;;;;;;;2.58;2.00;;;22.40;69.50;;;;;;5061069;28;20045;-75
2022/06/03 10:37:48;;;;;;;2.63;2.40;;;22.50;67.00;;;;;;5049316;28;20501;-74
2022/06/03 10:40:14;;;;;;;4.10;2.10;;;22.50;66.20;;;;;;5039216;28;20052;-75
2022/06/03 10:42:45;;;;;;;6.55;2.80;;;22.70;67.10;;;;;;5031971;28;20506;-74
2022/06/03 10:45:11;;;;;;;2.30;2.10;;;22.70;64.90;;;;;;5066014;28;20086;-74
2022/06/03 10:47:39;;;;;;;2.33;2.13;;;22.70;65.20;;;;;;5035099;28;20045;-74
2022/06/03 10:50:25;;;;;;;3.38;2.20;;;22.70;63.70;;;;;;5014050;28;20401;-75
2022/06/03 11:01:33;;;;;;;2.47;2.28;;;23.00;63.50;;;;;;5078909;28;20478;-74
2022/06/03 11:04:00;;;;;;;5.78;2.30;;;22.80;63.60;;;;;;5058817;28;20052;-75
2022/06/03 11:06:34;;;;;;;2.92;2.08;;;22.60;63.80;;;;;;5061701;28;20053;-74
2022/06/03 11:09:03;;;;;;;3.72;2.42;;;22.70;64.00;;;;;;5056749;28;20056;-75
2022/06/03 11:11:57;;;;;;;3.03;2.10;;;23.00;65.00;;;;;;5053281;28;20043;-75
2022/06/03 11:14:30;;;;;;;2.55;2.25;;;23.20;63.30;;;;;;5065828;28;20119;-75
2022/06/03 11:17:17;;;;;;;3.22;2.42;;;23.10;63.20;;;;;;5043858;28;20042;-75
2022/06/03 11:19:50;;;;;;;2.30;1.90;;;22.90;61.70;;;;;;5032793;28;20075;-75
2022/06/03 11:22:34;;;;;;;2.90;2.15;;;22.90;61.90;;;;;;5031903;28;20057;-74
2022/06/03 11:25:21;;;;;;;2.58;2.30;;;22.90;61.10;;;;;;5051713;28;20173;-74
2022/06/03 11:28:09;;;;;;;4.93;2.53;;;23.00;61.70;;;;;;5055491;28;20044;-74
2022/06/03 11:30:51;;;;;;;4.97;2.30;;;22.90;59.80;;;;;;5079144;28;20123;-74
2022/06/03 11:33:24;;;;;;;2.92;2.65;;;23.20;61.10;;;;;;5058054;28;20121;-76
2022/06/03 11:36:09;;;;;;;3.47;2.20;;;23.40;61.20;;;;;;5083412;28;20048;-76
2022/06/03 11:38:41;;;;;;;3.33;2.30;;;23.60;59.90;;;;;;5059873;28;20041;-75
2022/06/03 11:41:29;;;;;;;4.90;2.25;;;23.70;60.20;;;;;;5054059;28;20064;-75
2022/06/03 11:44:17;;;;;;;2.20;2.00;;;24.00;60.30;;;;;;5064080;28;20061;-76
2022/06/03 11:46:57;;;;;;;4.28;2.53;;;24.30;59.50;;;;;;5045948;28;20066;-76
2022/06/03 11:49:24;;;;;;;2.47;2.25;;;24.40;60.20;;;;;;5073577;28;20083;-75
2022/06/03 11:51:51;;;;;;;4.22;2.28;;;24.50;59.70;;;;;;5062232;28;20063;-76
2022/06/03 11:54:22;;;;;;;2.78;2.40;;;24.60;59.80;;;;;;5027842;28;20056;-76
2022/06/03 11:56:49;;;;;;;4.78;2.38;;;24.70;59.30;;;;;;5061792;28;20060;-77
2022/06/03 11:59:50;;;;;;;5.22;2.80;;;24.70;59.00;;;;;;5042418;28;20041;-76
2022/06/03 12:02:19;;;;;;;2.42;2.20;;;24.60;58.30;;;;;;5042678;28;20132;-76
2022/06/03 12:04:58;;;;;;;3.38;2.30;;;24.60;59.80;;;;;;5046853;28;20053;-75
2022/06/03 12:07:24;;;;;;;7.70;2.33;;;24.70;59.40;;;;;;5081698;28;20048;-75
2022/06/03 12:10:05;;;;;;;2.80;2.30;;;24.70;59.60;;;;;;5060766;28;20398;-78
2022/06/03 12:15:47;;;;;;;3.38;2.20;;;24.50;56.30;;;;;;5080868;28;20044;-76
2022/06/03 12:18:13;;;;;;;2.80;2.03;;;25.00;58.40;;;;;;5060436;28;20055;-75
2022/06/03 12:20:41;;;;;;;5.75;1.77;;;25.00;57.90;;;;;;5062488;28;20123;-76
2022/06/03 12:23:13;;;;;;;2.40;1.75;;;25.30;57.90;;;;;;5055013;28;20045;-75
2022/06/03 12:25:51;;;;;;;3.10;1.88;;;25.70;56.90;;;;;;5043068;28;20048;-75
2022/06/03 12:28:27;;;;;;;4.22;1.70;;;25.80;55.90;;;;;;5060522;28;20051;-76
2022/06/03 12:31:11;;;;;;;2.67;1.85;;;26.00;55.90;;;;;;5061412;28;20068;-76
2022/06/03 12:34:20;;;;;;;2.00;1.70;;;26.00;55.10;;;;;;5063113;28;20044;-76
2022/06/03 12:36:51;;;;;;;1.98;1.85;;;26.20;54.10;;;;;;5068016;28;20049;-76
2022/06/03 12:39:29;;;;;;;1.50;1.40;;;26.50;54.50;;;;;;5060380;28;20072;-77
2022/06/03 12:42:16;;;;;;;1.92;1.67;;;26.90;53.40;;;;;;5059263;28;20048;-76
2022/06/03 12:44:42;;;;;;;1.98;1.55;;;26.90;52.10;;;;;;5079977;28;20040;-76
2022/06/03 12:47:27;;;;;;;1.85;1.70;;;27.30;53.70;;;;;;5059007;28;20147;-76
2022/06/03 12:49:57;;;;;;;1.60;1.40;;;27.30;50.30;;;;;;5062251;28;20846;-76
2022/06/03 12:52:27;;;;;;;2.28;1.58;;;27.60;52.60;;;;;;5042776;28;20048;-75
2022/06/03 12:55:12;;;;;;;2.33;1.70;;;27.60;50.90;;;;;;5080097;28;20060;-75
2022/06/03 12:57:54;;;;;;;1.45;1.35;;;27.60;49.40;;;;;;5057414;28;20825;-74
2022/06/03 13:00:48;;;;;;;1.70;1.60;;;27.50;49.90;;;;;;5061081;28;20049;-76
2022/06/03 13:03:17;;;;;;;2.58;1.40;;;27.30;47.70;;;;;;5055725;28;20049;-74
2022/06/03 13:05:47;;;;;;;1.63;1.50;;;27.70;50.80;;;;;;5061057;28;20044;-75
2022/06/03 13:08:28;;;;;;;1.60;1.38;;;27.90;50.80;;;;;;5063641;28;20044;-75
2022/06/03 13:11:02;;;;;;;2.25;1.50;;;28.10;48.10;;;;;;5059994;28;20412;-75
2022/06/03 13:13:29;;;;;;;3.08;1.40;;;28.60;50.70;;;;;;5041972;28;20046;-75
2022/06/03 13:16:21;;;;;;;1.48;1.30;;;29.10;49.60;;;;;;5062619;28;20154;-75
2022/06/03 13:18:49;;;;;;;4.82;1.45;;;29.20;47.30;;;;;;5063510;28;20045;-74
2022/06/03 13:21:20;;;;;;;1.42;1.30;;;28.90;47.40;;;;;;5061180;28;20044;-75
2022/06/03 13:24:16;;;;;;;2.40;1.40;;;29.00;47.50;;;;;;5042169;28;20502;-75
2022/06/03 13:26:42;;;;;;;3.90;1.50;;;28.90;45.40;;;;;;5056743;28;20110;-75
2022/06/03 13:29:09;;;;;;;2.42;1.38;;;28.50;45.80;;;;;;5043463;28;20048;-74
2022/06/03 13:31:41;;;;;;;1.38;1.27;;;29.00;45.60;;;;;;5060698;28;20119;-75
2022/06/03 13:34:10;;;;;;;1.50;1.10;;;29.00;44.60;;;;;;5041181;28;20109;-75
2022/06/03 13:36:49;;;;;;;2.47;1.25;;;29.40;45.00;;;;;;5057612;28;20102;-75
2022/06/03 13:39:40;;;;;;;1.73;1.17;;;29.60;43.70;;;;;;5057004;28;20044;-75
2022/06/03 13:45:04;;;;;;;3.25;1.40;;;29.60;43.80;;;;;;5080753;28;20075;-75
2022/06/03 13:47:42;;;;;;;2.00;1.38;;;29.40;43.90;;;;;;5054156;28;20118;-75
2022/06/03 13:50:14;;;;;;;1.80;1.30;;;29.70;44.50;;;;;;5062022;28;20513;-74
2022/06/03 13:52:53;;;;;;;3.45;1.70;;;30.00;44.50;;;;;;5079242;28;20033;-74
2022/06/03 13:55:38;;;;;;;1.87;1.50;;;30.00;44.00;;;;;;5052190;28;20048;-74
2022/06/03 13:58:09;;;;;;;2.65;1.58;;;30.30;43.00;;;;;;5042707;28;20288;-74
2022/06/03 14:00:54;;;;;;;2.50;1.55;;;30.10;42.40;;;;;;5064868;28;20048;-74
2022/06/03 14:03:26;;;;;;;1.80;1.30;;;30.10;41.40;;;;;;5047711;28;20404;-74
2022/06/03 14:05:58;;;;;;;2.10;1.30;;;30.10;43.00;;;;;;5037224;28;20077;-74
2022/06/03 14:08:33;;;;;;;1.73;1.50;;;30.40;41.70;;;;;;5043274;28;20048;-74
2022/06/03 14:11:05;;;;;;;2.50;1.40;;;30.50;41.70;;;;;;5043639;28;20041;-74
2022/06/03 14:13:43;;;;;;;3.55;1.30;;;30.20;41.10;;;;;;5039809;28;20037;-75
2022/06/03 14:16:23;;;;;;;1.77;1.38;;;30.70;42.10;;;;;;5058031;28;20048;-74
2022/06/03 14:18:59;;;;;;;2.95;1.50;;;30.90;41.20;;;;;;5076769;28;20076;-74
2022/06/03 14:21:39;;;;;;;3.42;1.50;;;31.20;41.50;;;;;;5032810;28;20049;-75
2022/06/03 14:24:24;;;;;;;2.28;1.33;;;31.10;42.30;;;;;;5033563;28;20484;-74
2022/06/03 14:27:14;;;;;;;4.95;1.60;;;30.90;40.70;;;;;;5035249;28;20080;-74
2022/06/03 14:29:55;;;;;;;3.78;1.10;;;30.60;42.00;;;;;;5040941;28;20118;-75
2022/06/03 14:32:25;;;;;;;3.10;1.13;;;30.40;41.50;;;;;;5043893;28;20041;-74
2022/06/03 14:35:09;;;;;;;2.95;1.30;;;30.10;42.40;;;;;;5048773;28;20451;-74